TimeEST,TemperatureF,Dew PointF,Humidity,Sea Level PressureIn,VisibilityMPH,Wind Direction,Wind SpeedMPH,Gust SpeedMPH,PrecipitationIn,Events,Conditions,WindDirDegrees,DateUTC
12:15 AM,46.4,41.0,81,30.32,10.0,East,3.5,-,N/A,,Clear,90,2013-01-25 05:15:00
12:35 AM,50.0,44.6,82,30.32,10.0,East,8.1,-,N/A,,Clear,90,2013-01-25 05:35:00
12:55 AM,50.0,46.4,87,30.33,10.0,East,6.9,-,N/A,,Clear,90,2013-01-25 05:55:00
1:15 AM,48.2,44.6,87,30.33,10.0,East,6.9,-,N/A,,Clear,90,2013-01-25 06:15:00
1:55 AM,46.4,44.6,93,30.33,10.0,East,4.6,-,N/A,,Clear,80,2013-01-25 06:55:00
2:15 AM,46.4,44.6,93,30.33,10.0,East,3.5,-,N/A,,Clear,90,2013-01-25 07:15:00
2:35 AM,46.4,42.8,87,30.34,10.0,Calm,Calm,-,N/A,,Clear,0,2013-01-25 07:35:00
2:55 AM,44.6,42.8,93,30.34,10.0,East,3.5,-,N/A,,Clear,80,2013-01-25 07:55:00
3:15 AM,44.6,42.8,93,30.36,10.0,Calm,Calm,-,N/A,,Scattered Clouds,0,2013-01-25 08:15:00
3:35 AM,44.6,42.8,93,30.36,10.0,Calm,Calm,-,N/A,,Mostly Cloudy,0,2013-01-25 08:35:00
3:55 AM,44.6,42.8,93,30.35,10.0,NE,4.6,-,N/A,,Overcast,50,2013-01-25 08:55:00
4:15 AM,44.6,41.0,87,30.35,10.0,ENE,3.5,-,N/A,,Overcast,60,2013-01-25 09:15:00
4:35 AM,44.6,41.0,87,30.34,10.0,East,4.6,-,N/A,,Overcast,80,2013-01-25 09:35:00
4:55 AM,42.8,41.0,93,30.33,10.0,East,4.6,-,N/A,,Mostly Cloudy,80,2013-01-25 09:55:00
5:15 AM,42.8,41.0,93,30.34,10.0,ENE,3.5,-,N/A,,Mostly Cloudy,70,2013-01-25 10:15:00
5:55 AM,42.8,41.0,93,30.34,10.0,East,3.5,-,N/A,,Overcast,90,2013-01-25 10:55:00
6:15 AM,42.8,41.0,93,30.34,10.0,Calm,Calm,-,N/A,,Overcast,0,2013-01-25 11:15:00
6:35 AM,42.8,41.0,93,30.35,10.0,Calm,Calm,-,N/A,,Overcast,0,2013-01-25 11:35:00
6:55 AM,42.8,41.0,93,30.35,10.0,Calm,Calm,-,N/A,,Overcast,0,2013-01-25 11:55:00
7:15 AM,42.8,41.0,93,30.34,10.0,East,3.5,-,N/A,,Overcast,80,2013-01-25 12:15:00
7:35 AM,42.8,39.2,87,30.33,10.0,East,4.6,-,N/A,,Scattered Clouds,100,2013-01-25 12:35:00
7:55 AM,42.8,39.2,87,30.34,10.0,Calm,Calm,-,N/A,,Clear,0,2013-01-25 12:55:00
8:15 AM,42.8,39.2,87,30.35,10.0,Calm,Calm,-,N/A,,Clear,0,2013-01-25 13:15:00
8:35 AM,42.8,39.2,87,30.35,10.0,North,3.5,-,N/A,,Clear,360,2013-01-25 13:35:00
8:55 AM,42.8,37.4,81,30.35,10.0,North,3.5,-,N/A,,Clear,360,2013-01-25 13:55:00
9:15 AM,44.6,37.4,76,30.36,10.0,Calm,Calm,-,N/A,,Clear,0,2013-01-25 14:15:00
9:35 AM,46.4,39.2,76,30.36,10.0,Calm,Calm,-,N/A,,Clear,0,2013-01-25 14:35:00
9:55 AM,48.2,41.0,76,30.36,10.0,Calm,Calm,-,N/A,,Clear,0,2013-01-25 14:55:00
10:15 AM,48.2,39.2,71,30.37,10.0,Calm,Calm,-,N/A,,Clear,0,2013-01-25 15:15:00
10:35 AM,48.2,39.2,71,30.36,10.0,Calm,Calm,-,N/A,,Clear,0,2013-01-25 15:35:00
10:55 AM,50.0,39.2,66,30.35,10.0,Calm,Calm,-,N/A,,Clear,0,2013-01-25 15:55:00
11:15 AM,51.8,41.0,67,30.35,10.0,Calm,Calm,-,N/A,,Clear,0,2013-01-25 16:15:00
11:35 AM,53.6,42.8,67,30.33,10.0,SE,4.6,-,N/A,,Clear,140,2013-01-25 16:35:00
11:55 AM,55.4,42.8,63,30.30,10.0,SSE,4.6,-,N/A,,Clear,160,2013-01-25 16:55:00
12:15 PM,57.2,44.6,63,30.29,10.0,SE,4.6,-,N/A,,Clear,140,2013-01-25 17:15:00
12:35 PM,59.0,46.4,63,30.26,10.0,South,5.8,-,N/A,,Clear,170,2013-01-25 17:35:00
12:55 PM,62.6,48.2,59,30.26,10.0,SSE,5.8,-,N/A,,Clear,150,2013-01-25 17:55:00
1:15 PM,60.8,48.2,63,30.25,10.0,SW,4.6,-,N/A,,Clear,230,2013-01-25 18:15:00
1:35 PM,64.4,50.0,59,30.23,10.0,Calm,Calm,-,N/A,,Clear,0,2013-01-25 18:35:00
2:15 PM,68.0,51.8,56,30.21,10.0,SW,5.8,-,N/A,,Clear,220,2013-01-25 19:15:00
2:35 PM,69.8,51.8,53,30.20,10.0,WSW,6.9,-,N/A,,Clear,240,2013-01-25 19:35:00
2:55 PM,69.8,50.0,49,30.19,10.0,SSW,6.9,-,N/A,,Clear,200,2013-01-25 19:55:00
3:15 PM,71.6,50.0,46,30.19,10.0,SW,11.5,16.1,N/A,,Clear,220,2013-01-25 20:15:00
3:35 PM,71.6,50.0,46,30.18,10.0,WSW,9.2,-,N/A,,Clear,250,2013-01-25 20:35:00
3:55 PM,71.6,50.0,46,30.18,10.0,WSW,5.8,-,N/A,,Clear,240,2013-01-25 20:55:00
4:15 PM,69.8,50.0,49,30.18,10.0,WSW,8.1,17.3,N/A,,Clear,250,2013-01-25 21:15:00
4:35 PM,69.8,50.0,49,30.18,10.0,WSW,6.9,-,N/A,,Clear,250,2013-01-25 21:35:00
4:55 PM,69.8,50.0,49,30.17,10.0,WSW,6.9,-,N/A,,Clear,250,2013-01-25 21:55:00
5:15 PM,68.0,50.0,52,30.17,10.0,WSW,5.8,-,N/A,,Clear,240,2013-01-25 22:15:00
5:35 PM,68.0,50.0,52,30.17,10.0,WSW,6.9,-,N/A,,Clear,250,2013-01-25 22:35:00
5:55 PM,66.2,51.8,60,30.18,10.0,WSW,5.8,-,N/A,,Clear,250,2013-01-25 22:55:00
6:15 PM,64.4,51.8,64,30.18,10.0,WSW,5.8,-,N/A,,Clear,250,2013-01-25 23:15:00
6:35 PM,64.4,51.8,64,30.18,10.0,WSW,4.6,-,N/A,,Clear,250,2013-01-25 23:35:00
6:55 PM,64.4,51.8,64,30.19,10.0,WSW,4.6,-,N/A,,Clear,250,2013-01-25 23:55:00
7:15 PM,62.6,50.0,63,30.19,10.0,WSW,4.6,-,N/A,,Clear,240,2013-01-26 00:15:00
7:35 PM,62.6,50.0,63,30.19,10.0,WSW,6.9,-,N/A,,Clear,240,2013-01-26 00:35:00
7:55 PM,62.6,50.0,63,30.18,10.0,SW,4.6,-,N/A,,Clear,230,2013-01-26 00:55:00
8:15 PM,62.6,50.0,63,30.18,10.0,WSW,5.8,-,N/A,,Clear,240,2013-01-26 01:15:00
8:35 PM,62.6,50.0,63,30.19,10.0,WSW,4.6,-,N/A,,Clear,240,2013-01-26 01:35:00
8:55 PM,60.8,50.0,68,30.19,10.0,WSW,5.8,-,N/A,,Clear,240,2013-01-26 01:55:00
9:15 PM,60.8,50.0,68,30.19,10.0,WSW,5.8,-,N/A,,Clear,240,2013-01-26 02:15:00
9:35 PM,60.8,50.0,68,30.19,10.0,SW,5.8,-,N/A,,Clear,230,2013-01-26 02:35:00
9:55 PM,60.8,50.0,68,30.18,10.0,WSW,4.6,-,N/A,,Clear,240,2013-01-26 02:55:00
10:15 PM,59.0,50.0,72,30.19,10.0,WSW,4.6,-,N/A,,Clear,240,2013-01-26 03:15:00
10:35 PM,59.0,50.0,72,30.20,10.0,WSW,4.6,-,N/A,,Clear,250,2013-01-26 03:35:00
10:55 PM,57.2,50.0,77,30.21,10.0,WSW,3.5,-,N/A,,Clear,240,2013-01-26 03:55:00
11:15 PM,57.2,50.0,77,30.21,10.0,Calm,Calm,-,N/A,,Clear,0,2013-01-26 04:15:00
11:35 PM,55.4,50.0,82,30.21,10.0,SW,3.5,-,N/A,,Clear,230,2013-01-26 04:35:00
11:55 PM,55.4,50.0,82,30.21,10.0,WSW,4.6,-,N/A,,Clear,240,2013-01-26 04:55:00